Time;durP1;ratioP1;P1;durP2;ratioP2;P2;SDS_P1;SDS_P2;PMS_P1;PMS_P2;Temp;Humidity;BMP_temperature;BMP_pressure;BME280_temperature;BME280_humidity;BME280_pressure;Samples;Min_cycle;Max_cycle;Signal;HPM_P1;HPM_P2
2023/08/06 00:00:18;;;;;;;13.63;11.18;;;14.60;99.90;;;;;;5052406;28;20048;-73
2023/08/06 00:02:43;;;;;;;14.40;11.05;;;14.60;99.90;;;;;;5052582;28;20098;-73
2023/08/06 00:05:09;;;;;;;12.70;11.07;;;14.60;99.90;;;;;;5052143;28;20041;-74
2023/08/06 00:07:35;;;;;;;13.63;10.00;;;14.60;99.90;;;;;;5052541;28;20122;-73
2023/08/06 00:10:00;;;;;;;13.18;9.15;;;14.60;99.90;;;;;;5052784;28;20068;-74
2023/08/06 00:12:26;;;;;;;10.60;8.73;;;14.50;99.90;;;;;;5053328;28;20048;-74
2023/08/06 00:14:52;;;;;;;12.10;8.15;;;14.60;99.90;;;;;;5056599;28;20124;-73
2023/08/06 00:17:19;;;;;;;9.38;8.40;;;14.60;99.90;;;;;;5056198;28;20071;-73
2023/08/06 00:19:44;;;;;;;12.35;7.78;;;14.50;99.90;;;;;;5039301;28;20048;-74
2023/08/06 00:22:10;;;;;;;10.23;8.27;;;14.50;99.90;;;;;;5038323;28;20040;-75
2023/08/06 00:24:36;;;;;;;9.10;8.20;;;14.50;99.90;;;;;;5057024;28;20053;-73
2023/08/06 00:27:02;;;;;;;10.07;7.32;;;14.50;99.90;;;;;;5056031;28;20053;-75
2023/08/06 00:29:28;;;;;;;11.48;8.93;;;14.60;99.90;;;;;;5056310;28;20072;-73
2023/08/06 00:31:54;;;;;;;9.77;8.63;;;14.50;99.90;;;;;;5056020;28;20526;-73
2023/08/06 00:34:19;;;;;;;8.73;7.82;;;14.50;99.90;;;;;;5038126;28;20056;-73
2023/08/06 00:36:45;;;;;;;9.02;8.15;;;14.60;99.90;;;;;;5056230;28;20079;-73
2023/08/06 00:39:11;;;;;;;10.75;9.23;;;14.60;99.90;;;;;;5056276;28;20056;-74
2023/08/06 00:41:37;;;;;;;10.57;8.38;;;14.60;99.90;;;;;;5055848;28;20052;-74
2023/08/06 00:44:03;;;;;;;9.05;8.00;;;14.60;99.90;;;;;;5055554;28;20051;-73
2023/08/06 00:46:30;;;;;;;11.25;7.97;;;14.60;99.90;;;;;;5055675;28;20048;-74
2023/08/06 00:48:56;;;;;;;11.15;9.40;;;14.60;99.90;;;;;;5037692;28;20037;-75
2023/08/06 00:51:22;;;;;;;10.43;8.57;;;14.50;99.90;;;;;;5055726;28;20041;-73
2023/08/06 00:53:50;;;;;;;11.80;10.27;;;14.50;99.90;;;;;;5055469;28;20525;-73
2023/08/06 00:56:16;;;;;;;11.00;9.98;;;14.60;99.90;;;;;;5055233;28;20076;-73
2023/08/06 00:58:42;;;;;;;12.27;9.65;;;14.50;99.90;;;;;;5055483;28;20041;-73
2023/08/06 01:01:07;;;;;;;10.77;9.63;;;14.50;99.90;;;;;;5055428;28;20097;-76
2023/08/06 01:03:33;;;;;;;11.57;9.60;;;14.50;99.90;;;;;;5055450;28;20049;-73
2023/08/06 01:06:00;;;;;;;13.35;10.93;;;14.60;99.90;;;;;;5055389;28;20052;-75
2023/08/06 01:08:54;;;;;;;14.95;11.27;;;14.60;99.90;;;;;;5055296;28;20107;-75
2023/08/06 01:11:51;;;;;;;11.85;10.60;;;14.50;99.90;;;;;;5055666;28;20044;-73
2023/08/06 01:14:41;;;;;;;15.07;11.30;;;14.60;99.90;;;;;;5055272;28;20502;-73
2023/08/06 01:17:08;;;;;;;13.55;11.65;;;14.50;99.90;;;;;;5055311;28;20095;-72
2023/08/06 01:19:33;;;;;;;15.18;12.00;;;14.50;99.90;;;;;;5055288;28;20049;-72
2023/08/06 01:21:59;;;;;;;13.52;12.13;;;14.50;99.90;;;;;;5037233;28;20435;-73
2023/08/06 01:24:24;;;;;;;11.88;10.63;;;14.50;99.90;;;;;;5054812;28;20051;-73
2023/08/06 01:27:14;;;;;;;16.30;12.00;;;14.50;99.90;;;;;;5055345;28;20064;-74
2023/08/06 01:29:48;;;;;;;14.35;12.45;;;14.50;99.90;;;;;;5054904;28;20047;-74
2023/08/06 01:32:15;;;;;;;14.65;12.30;;;14.60;99.90;;;;;;5054464;28;20063;-74
2023/08/06 01:34:44;;;;;;;20.80;14.80;;;14.50;99.90;;;;;;5054728;28;20080;-75
2023/08/06 01:37:11;;;;;;;14.98;13.30;;;14.60;99.90;;;;;;5054905;28;20116;-74
2023/08/06 01:39:37;;;;;;;15.05;13.10;;;14.50;99.90;;;;;;5054684;28;20128;-73
2023/08/06 01:42:03;;;;;;;15.05;12.98;;;14.60;99.90;;;;;;5037371;28;20076;-72
2023/08/06 01:44:28;;;;;;;14.55;13.13;;;14.60;99.90;;;;;;5037265;28;20087;-72
2023/08/06 01:46:54;;;;;;;15.25;12.00;;;14.50;99.90;;;;;;5054657;28;20041;-73
2023/08/06 01:49:20;;;;;;;15.05;12.10;;;14.50;99.90;;;;;;5054869;28;20128;-72
2023/08/06 01:51:45;;;;;;;15.60;12.45;;;14.60;99.90;;;;;;5054475;28;20045;-73
2023/08/06 01:54:11;;;;;;;15.57;12.63;;;14.60;99.90;;;;;;5036848;28;20053;-73
2023/08/06 01:56:37;;;;;;;15.23;11.93;;;14.60;99.90;;;;;;5054399;28;20045;-75
2023/08/06 01:59:02;;;;;;;13.18;11.55;;;14.60;99.90;;;;;;5054310;28;20048;-74
2023/08/06 02:01:28;;;;;;;13.45;11.85;;;14.50;99.90;;;;;;5037356;28;20485;-73
2023/08/06 02:03:54;;;;;;;12.98;11.63;;;14.60;99.90;;;;;;5054894;28;20117;-72
2023/08/06 02:06:20;;;;;;;14.55;12.35;;;14.50;99.90;;;;;;5054372;28;20090;-75
2023/08/06 02:08:46;;;;;;;13.73;11.30;;;14.50;99.90;;;;;;5053866;28;20490;-72
2023/08/06 02:11:11;;;;;;;17.48;12.80;;;14.60;99.90;;;;;;5054633;28;20056;-73
2023/08/06 02:13:37;;;;;;;15.63;12.63;;;14.50;99.90;;;;;;5036721;28;20133;-74
2023/08/06 02:16:03;;;;;;;14.20;12.70;;;14.60;99.90;;;;;;5055132;28;20048;-72
2023/08/06 02:18:28;;;;;;;13.82;12.27;;;14.60;99.90;;;;;;5054593;28;20514;-72
2023/08/06 02:21:00;;;;;;;13.20;10.82;;;14.60;99.90;;;;;;5036344;28;20393;-73
2023/08/06 02:23:26;;;;;;;15.27;13.05;;;14.60;99.90;;;;;;5054058;28;20055;-73
2023/08/06 02:26:03;;;;;;;15.23;12.38;;;14.50;99.90;;;;;;5053872;28;20048;-75
2023/08/06 02:28:29;;;;;;;13.73;12.27;;;14.60;99.90;;;;;;5053804;28;20037;-72
2023/08/06 02:30:55;;;;;;;14.52;12.95;;;14.60;99.90;;;;;;5035997;28;20060;-73
2023/08/06 02:33:21;;;;;;;14.55;12.38;;;14.60;99.90;;;;;;5036084;28;20399;-72
2023/08/06 02:35:47;;;;;;;13.05;11.48;;;14.60;99.90;;;;;;5053480;28;20081;-74
2023/08/06 02:38:12;;;;;;;13.82;12.30;;;14.60;99.90;;;;;;5036605;28;20135;-72
2023/08/06 02:40:45;;;;;;;17.42;13.00;;;14.60;99.90;;;;;;5053618;28;20048;-73
2023/08/06 02:43:11;;;;;;;12.93;11.70;;;14.60;99.90;;;;;;5053478;28;20051;-73
2023/08/06 02:45:36;;;;;;;16.20;12.00;;;14.60;99.90;;;;;;5020041;28;20049;-72
2023/08/06 02:48:02;;;;;;;15.27;11.60;;;14.60;99.90;;;;;;5035673;28;20081;-73
2023/08/06 02:50:28;;;;;;;12.05;10.18;;;14.50;99.90;;;;;;5053380;28;20099;-75
2023/08/06 02:52:54;;;;;;;11.82;9.85;;;14.50;99.90;;;;;;5053389;28;20053;-72
2023/08/06 02:55:20;;;;;;;13.40;11.40;;;14.50;99.90;;;;;;5053284;28;20483;-74
2023/08/06 02:57:45;;;;;;;12.13;10.85;;;14.60;99.90;;;;;;5035775;28;20040;-72
2023/08/06 03:00:11;;;;;;;11.55;9.70;;;14.60;99.90;;;;;;5036111;28;20048;-75
2023/08/06 03:02:37;;;;;;;12.63;9.88;;;14.60;99.90;;;;;;5053591;28;20524;-73
2023/08/06 03:05:03;;;;;;;15.50;10.73;;;14.50;99.90;;;;;;5053136;28;20040;-72
2023/08/06 03:07:29;;;;;;;11.50;10.20;;;14.50;99.90;;;;;;5035761;28;20052;-72
2023/08/06 03:09:55;;;;;;;14.70;10.20;;;14.50;99.90;;;;;;5052977;28;20041;-72
2023/08/06 03:12:20;;;;;;;11.02;9.85;;;14.50;99.90;;;;;;5053594;28;20446;-73
2023/08/06 03:14:46;;;;;;;11.57;9.35;;;14.50;99.90;;;;;;5052747;28;20037;-73
2023/08/06 03:17:12;;;;;;;11.23;10.07;;;14.50;99.90;;;;;;5053050;28;20047;-73
2023/08/06 03:19:37;;;;;;;13.00;9.88;;;14.50;99.90;;;;;;5053012;28;20139;-73
2023/08/06 03:22:03;;;;;;;12.80;9.55;;;14.50;99.90;;;;;;5035273;28;20441;-72
2023/08/06 03:24:29;;;;;;;12.23;10.68;;;14.50;99.90;;;;;;5053225;28;20049;-75
2023/08/06 03:26:54;;;;;;;10.77;9.68;;;14.50;99.90;;;;;;5053021;28;20052;-72
2023/08/06 03:29:21;;;;;;;11.98;10.77;;;14.50;99.90;;;;;;5034959;28;20127;-75
2023/08/06 03:31:47;;;;;;;12.90;11.23;;;14.20;99.90;;;;;;5053143;28;20057;-73
2023/08/06 03:34:12;;;;;;;12.25;10.63;;;14.50;99.90;;;;;;5034826;28;20074;-74
2023/08/06 03:36:38;;;;;;;9.80;8.80;;;14.40;99.90;;;;;;5052665;28;20124;-73
2023/08/06 03:39:04;;;;;;;11.45;9.70;;;14.40;99.90;;;;;;5035388;28;20484;-75
2023/08/06 03:41:30;;;;;;;10.98;9.63;;;14.40;99.90;;;;;;5053189;28;20132;-72
2023/08/06 03:43:56;;;;;;;14.35;9.68;;;14.40;99.90;;;;;;5052481;28;20491;-71
2023/08/06 03:46:21;;;;;;;10.52;9.43;;;14.30;99.90;;;;;;5052224;28;20178;-71
2023/08/06 03:48:47;;;;;;;12.73;10.98;;;14.30;99.90;;;;;;5052353;28;20462;-72
2023/08/06 03:51:13;;;;;;;12.75;10.82;;;14.30;99.90;;;;;;5052772;28;20198;-72
2023/08/06 03:53:38;;;;;;;14.27;10.52;;;14.20;99.90;;;;;;5052248;28;20041;-72
2023/08/06 03:56:04;;;;;;;11.75;10.40;;;14.20;99.90;;;;;;5052042;28;20044;-74
2023/08/06 03:58:30;;;;;;;12.88;10.55;;;14.20;99.90;;;;;;5052359;28;20045;-73
2023/08/06 04:01:02;;;;;;;10.25;8.60;;;14.10;99.90;;;;;;5052366;28;20059;-72
2023/08/06 04:03:29;;;;;;;9.25;8.25;;;14.10;99.90;;;;;;5052390;28;20091;-72
2023/08/06 04:05:54;;;;;;;10.13;9.00;;;14.10;99.90;;;;;;5052528;28;20434;-72
2023/08/06 04:08:20;;;;;;;14.63;11.45;;;14.00;99.90;;;;;;5052330;28;20120;-73
2023/08/06 04:10:50;;;;;;;10.35;9.25;;;14.00;99.90;;;;;;5052646;28;20088;-73
2023/08/06 04:13:16;;;;;;;12.10;10.75;;;14.00;99.90;;;;;;5052508;28;20084;-72
2023/08/06 04:15:42;;;;;;;12.20;10.98;;;14.00;99.90;;;;;;5034932;28;20084;-72
2023/08/06 04:18:08;;;;;;;14.18;11.32;;;14.00;99.90;;;;;;5052154;28;20040;-73
2023/08/06 04:20:33;;;;;;;11.52;10.32;;;14.00;99.90;;;;;;5035061;28;20079;-72
2023/08/06 04:22:59;;;;;;;13.30;10.95;;;14.00;99.90;;;;;;5034375;28;20056;-75
2023/08/06 04:25:25;;;;;;;15.02;11.82;;;13.90;99.90;;;;;;5052251;28;20056;-73
2023/08/06 04:27:50;;;;;;;11.45;9.65;;;13.90;99.90;;;;;;5052259;28;20045;-73
2023/08/06 04:30:16;;;;;;;13.65;10.10;;;13.90;99.90;;;;;;5052344;28;20076;-74
2023/08/06 04:32:42;;;;;;;12.85;10.63;;;13.90;99.90;;;;;;5052908;28;20097;-72
2023/08/06 04:35:07;;;;;;;11.88;10.70;;;13.90;99.90;;;;;;5052269;28;20041;-73
2023/08/06 04:37:33;;;;;;;12.90;10.90;;;13.90;99.90;;;;;;5052047;28;20041;-73
2023/08/06 04:39:59;;;;;;;12.10;10.43;;;13.80;99.90;;;;;;5051994;28;20127;-73
2023/08/06 04:42:25;;;;;;;12.48;11.13;;;13.70;99.90;;;;;;5052006;28;20088;-72
2023/08/06 04:44:50;;;;;;;10.73;9.52;;;13.70;99.90;;;;;;5051848;28;20450;-74
2023/08/06 04:47:16;;;;;;;11.07;9.25;;;13.70;99.90;;;;;;5051760;28;20045;-73
2023/08/06 04:49:42;;;;;;;12.55;10.35;;;13.70;99.90;;;;;;5051894;28;20049;-73
2023/08/06 04:52:08;;;;;;;10.18;9.07;;;13.80;99.90;;;;;;5051797;28;20120;-72
2023/08/06 04:54:34;;;;;;;13.88;10.52;;;13.70;99.90;;;;;;5034171;28;20095;-74
2023/08/06 04:56:59;;;;;;;13.30;11.65;;;13.80;99.90;;;;;;5051473;28;20049;-72
2023/08/06 04:59:25;;;;;;;13.70;10.57;;;13.70;99.90;;;;;;5054765;28;20037;-74
2023/08/06 05:01:51;;;;;;;13.88;12.25;;;13.70;99.90;;;;;;5055876;28;20049;-74
2023/08/06 05:04:16;;;;;;;11.65;10.43;;;13.50;99.90;;;;;;5055925;28;20041;-75
2023/08/06 05:06:42;;;;;;;12.32;10.70;;;13.60;99.90;;;;;;5038159;28;20128;-73
2023/08/06 05:09:08;;;;;;;10.90;9.05;;;13.60;99.90;;;;;;5037525;28;20048;-73
2023/08/06 05:11:33;;;;;;;15.48;10.65;;;13.60;99.90;;;;;;5055589;28;20052;-72
2023/08/06 05:13:59;;;;;;;12.57;10.15;;;13.70;99.90;;;;;;5056125;28;20128;-74
2023/08/06 05:16:24;;;;;;;14.55;11.85;;;13.70;99.90;;;;;;5055649;28;20495;-72
2023/08/06 05:18:50;;;;;;;12.55;10.90;;;13.80;99.90;;;;;;5055134;28;20063;-72
2023/08/06 05:21:16;;;;;;;12.05;10.57;;;13.80;99.90;;;;;;5055171;28;20118;-73
2023/08/06 05:23:42;;;;;;;12.38;11.13;;;13.80;99.90;;;;;;5038055;28;20132;-73
2023/08/06 05:26:08;;;;;;;13.30;11.77;;;13.90;99.90;;;;;;5054745;28;20501;-73
2023/08/06 05:28:34;;;;;;;12.80;10.38;;;14.00;99.90;;;;;;5055313;28;20048;-73
2023/08/06 05:31:04;;;;;;;14.27;10.80;;;14.00;99.90;;;;;;5054678;28;20548;-74
2023/08/06 05:33:30;;;;;;;13.15;11.35;;;14.00;99.90;;;;;;5054845;28;20049;-74
2023/08/06 05:35:56;;;;;;;13.45;10.77;;;14.10;99.90;;;;;;5037078;28;20122;-74
2023/08/06 05:38:21;;;;;;;11.82;9.45;;;14.10;99.90;;;;;;5055080;28;20116;-74
2023/08/06 05:40:47;;;;;;;12.38;10.38;;;14.10;99.90;;;;;;5037104;28;20045;-74
2023/08/06 05:43:13;;;;;;;14.02;11.05;;;14.20;99.90;;;;;;5054672;28;20132;-75
2023/08/06 05:45:39;;;;;;;12.90;10.85;;;14.20;99.90;;;;;;5037335;28;20085;-73
2023/08/06 05:48:04;;;;;;;11.57;10.38;;;14.40;99.90;;;;;;5055298;28;20055;-73
2023/08/06 05:50:30;;;;;;;15.45;10.65;;;14.40;99.90;;;;;;5055011;28;20080;-74
2023/08/06 05:52:56;;;;;;;11.02;9.80;;;14.50;99.90;;;;;;5036921;28;20045;-73
2023/08/06 05:55:22;;;;;;;12.73;9.80;;;14.60;99.90;;;;;;5054309;28;20052;-74
2023/08/06 05:57:47;;;;;;;13.20;10.90;;;14.60;99.90;;;;;;5036733;28;20049;-75
2023/08/06 06:00:13;;;;;;;11.13;9.45;;;14.70;99.90;;;;;;5054470;28;20048;-74
2023/08/06 06:02:39;;;;;;;11.05;8.85;;;14.80;99.90;;;;;;5054236;28;20525;-73
2023/08/06 06:05:05;;;;;;;10.55;9.35;;;14.90;99.90;;;;;;5036500;28;20040;-73
2023/08/06 06:07:30;;;;;;;10.07;9.07;;;14.90;99.90;;;;;;5053873;28;20119;-74
2023/08/06 06:09:56;;;;;;;11.85;9.32;;;15.10;99.90;;;;;;5019313;28;20080;-74
2023/08/06 06:12:22;;;;;;;11.82;9.20;;;15.20;99.90;;;;;;5054031;28;20051;-73
2023/08/06 06:14:48;;;;;;;11.52;10.32;;;15.30;99.90;;;;;;5020522;28;20045;-74
2023/08/06 06:17:13;;;;;;;17.65;9.95;;;15.40;99.90;;;;;;5053972;28;20067;-74
2023/08/06 06:19:39;;;;;;;15.10;9.88;;;15.50;99.90;;;;;;5053915;28;20049;-73
2023/08/06 06:22:05;;;;;;;11.02;9.80;;;15.70;99.90;;;;;;5054133;28;20044;-74
2023/08/06 06:24:31;;;;;;;10.52;8.88;;;15.70;99.90;;;;;;5054293;28;20122;-74
2023/08/06 06:26:56;;;;;;;11.82;10.48;;;15.80;99.90;;;;;;5053898;28;20442;-74
2023/08/06 06:29:22;;;;;;;13.07;10.23;;;15.80;99.90;;;;;;5035884;28;20166;-74
2023/08/06 06:31:48;;;;;;;11.25;9.52;;;15.70;99.90;;;;;;5035664;28;20064;-73
2023/08/06 06:34:13;;;;;;;11.40;9.52;;;15.80;99.90;;;;;;5053902;28;20041;-73
2023/08/06 06:36:39;;;;;;;11.57;9.60;;;15.80;99.90;;;;;;5053643;28;20385;-74
2023/08/06 06:39:05;;;;;;;11.57;8.98;;;15.90;99.90;;;;;;5053742;28;20132;-72
2023/08/06 06:41:32;;;;;;;10.25;8.75;;;15.80;99.90;;;;;;5035437;28;20048;-74
2023/08/06 06:43:58;;;;;;;12.13;9.63;;;15.90;99.90;;;;;;5053585;28;20081;-73
2023/08/06 06:46:24;;;;;;;11.07;9.68;;;16.00;99.90;;;;;;5035510;28;20048;-72
2023/08/06 06:48:50;;;;;;;10.05;9.05;;;16.00;99.90;;;;;;5053275;28;20052;-73
2023/08/06 06:51:16;;;;;;;10.07;9.07;;;16.00;99.90;;;;;;5053039;28;20124;-75
2023/08/06 06:53:41;;;;;;;11.77;8.95;;;16.10;99.90;;;;;;5053359;28;20087;-73
2023/08/06 06:56:07;;;;;;;10.77;9.68;;;16.30;99.90;;;;;;5035424;28;20061;-73
2023/08/06 06:58:33;;;;;;;9.85;8.68;;;16.40;99.90;;;;;;5053269;28;20048;-74
2023/08/06 07:01:02;;;;;;;10.60;8.88;;;16.40;99.90;;;;;;5053501;28;20080;-73
2023/08/06 07:03:27;;;;;;;10.60;9.52;;;16.50;99.90;;;;;;5053310;28;20044;-74
2023/08/06 07:05:58;;;;;;;12.90;8.85;;;16.40;99.90;;;;;;5053592;28;20057;-74
2023/08/06 07:08:23;;;;;;;12.60;9.05;;;16.50;99.90;;;;;;5035664;28;20452;-73
2023/08/06 07:10:49;;;;;;;12.18;8.75;;;16.40;99.90;;;;;;5035696;28;20052;-74
2023/08/06 07:13:16;;;;;;;11.00;8.52;;;16.50;99.90;;;;;;5053417;28;20071;-73
2023/08/06 07:15:42;;;;;;;10.63;8.57;;;16.50;99.90;;;;;;5053145;28;20124;-73
2023/08/06 07:18:07;;;;;;;12.18;9.35;;;16.60;99.90;;;;;;5053194;28;20191;-75
2023/08/06 07:20:34;;;;;;;11.32;8.70;;;16.60;99.90;;;;;;5053435;28;20519;-73
2023/08/06 07:23:00;;;;;;;10.65;8.75;;;16.60;99.90;;;;;;5052805;28;20142;-74
2023/08/06 07:25:26;;;;;;;13.13;9.15;;;16.70;99.90;;;;;;5053326;28;20348;-74
2023/08/06 07:27:51;;;;;;;9.43;8.40;;;16.80;99.90;;;;;;5052641;28;20043;-73
2023/08/06 07:30:17;;;;;;;10.73;8.25;;;16.90;99.90;;;;;;5052862;28;20132;-73
2023/08/06 07:32:43;;;;;;;9.43;7.95;;;17.10;99.90;;;;;;5053376;28;20056;-72
2023/08/06 07:35:12;;;;;;;9.88;8.88;;;17.30;99.90;;;;;;5035298;28;20049;-71
2023/08/06 07:37:39;;;;;;;8.45;7.65;;;17.50;99.90;;;;;;5052598;28;20179;-73
2023/08/06 07:40:05;;;;;;;10.93;7.78;;;17.50;99.90;;;;;;5052647;28;20064;-72
2023/08/06 07:42:31;;;;;;;7.75;7.05;;;17.60;99.90;;;;;;5052878;28;20061;-72
2023/08/06 07:44:58;;;;;;;8.52;7.32;;;17.60;99.90;;;;;;5052460;28;20535;-71
2023/08/06 07:47:24;;;;;;;9.02;7.78;;;17.80;99.90;;;;;;5052591;28;20045;-72
2023/08/06 07:49:50;;;;;;;8.55;7.43;;;17.90;99.90;;;;;;5053061;28;20101;-72
2023/08/06 07:52:15;;;;;;;8.20;7.45;;;17.80;99.90;;;;;;5052767;28;20611;-72
2023/08/06 07:54:41;;;;;;;8.55;7.25;;;18.00;99.90;;;;;;5052376;28;20048;-72
2023/08/06 07:57:07;;;;;;;7.90;6.85;;;18.20;99.90;;;;;;5052368;28;20049;-72
2023/08/06 07:59:33;;;;;;;9.25;7.13;;;18.60;99.90;;;;;;5035111;28;20130;-73
2023/08/06 08:01:59;;;;;;;6.80;6.10;;;19.10;99.90;;;;;;5052417;28;20052;-72
2023/08/06 08:04:24;;;;;;;7.30;6.55;;;19.40;99.90;;;;;;5034405;28;20446;-72
2023/08/06 08:06:50;;;;;;;7.32;6.40;;;19.50;99.90;;;;;;5034707;28;20122;-72
2023/08/06 08:09:16;;;;;;;7.90;7.20;;;19.30;99.90;;;;;;5052188;28;20116;-72
2023/08/06 08:11:42;;;;;;;8.43;6.63;;;19.10;99.90;;;;;;5034879;28;20041;-72
2023/08/06 08:14:07;;;;;;;8.40;6.68;;;19.00;99.90;;;;;;5052763;28;20595;-72
2023/08/06 08:16:33;;;;;;;7.55;6.18;;;19.00;99.90;;;;;;5034694;28;20398;-73
2023/08/06 08:18:59;;;;;;;6.43;5.43;;;19.30;99.90;;;;;;5052477;28;20087;-77
2023/08/06 08:21:25;;;;;;;7.55;6.85;;;19.50;99.90;;;;;;5034419;28;20122;-73
2023/08/06 08:23:51;;;;;;;6.93;5.60;;;19.70;99.90;;;;;;5034629;28;20567;-76
2023/08/06 08:26:17;;;;;;;7.30;6.25;;;20.00;99.90;;;;;;5034790;28;20055;-73
2023/08/06 08:28:43;;;;;;;6.75;6.10;;;20.50;99.90;;;;;;5052749;28;20052;-74
2023/08/06 08:31:09;;;;;;;6.53;5.82;;;20.90;99.90;;;;;;5051915;28;20512;-73
2023/08/06 08:33:35;;;;;;;6.80;5.53;;;20.90;99.90;;;;;;5053960;28;20055;-75
2023/08/06 08:36:01;;;;;;;6.82;6.03;;;20.80;99.90;;;;;;5056056;28;20036;-75
2023/08/06 08:38:27;;;;;;;7.25;5.63;;;20.40;99.90;;;;;;5056032;28;20049;-74
2023/08/06 08:40:54;;;;;;;6.97;6.28;;;20.40;99.90;;;;;;5055999;28;20052;-77
2023/08/06 08:43:23;;;;;;;6.40;5.78;;;20.60;99.90;;;;;;5055963;28;20374;-72
2023/08/06 08:45:58;;;;;;;5.13;4.65;;;20.80;99.90;;;;;;5056001;28;20412;-72
2023/08/06 08:48:25;;;;;;;6.72;5.35;;;21.00;99.90;;;;;;5056317;28;20120;-74
2023/08/06 08:50:51;;;;;;;7.13;5.43;;;21.10;99.90;;;;;;5055804;28;20084;-74
2023/08/06 08:53:18;;;;;;;7.88;5.72;;;21.20;99.90;;;;;;5055804;28;20048;-73
2023/08/06 08:55:47;;;;;;;5.75;5.20;;;21.80;99.90;;;;;;5056000;28;20049;-73
2023/08/06 08:58:13;;;;;;;5.35;4.88;;;22.90;99.90;;;;;;5038403;28;20060;-73
2023/08/06 09:00:41;;;;;;;5.90;4.90;;;23.70;99.90;;;;;;5055598;28;20040;-73
2023/08/06 09:03:07;;;;;;;4.90;4.40;;;23.60;99.90;;;;;;5055738;28;20052;-74
2023/08/06 09:05:34;;;;;;;5.20;4.10;;;23.30;99.90;;;;;;5037817;28;20056;-74
2023/08/06 09:08:04;;;;;;;5.60;4.30;;;23.40;99.90;;;;;;5055862;28;20128;-73
2023/08/06 09:10:30;;;;;;;8.10;4.32;;;23.00;99.90;;;;;;5037665;28;20049;-73
2023/08/06 09:12:58;;;;;;;4.18;3.83;;;22.70;99.90;;;;;;5037940;28;20057;-74
2023/08/06 09:15:27;;;;;;;3.40;2.92;;;22.80;99.90;;;;;;5055697;28;20048;-73
2023/08/06 09:17:54;;;;;;;3.08;2.65;;;22.90;99.90;;;;;;5037695;28;20052;-73
2023/08/06 09:20:20;;;;;;;3.13;2.88;;;23.20;99.90;;;;;;5055518;28;20076;-73
2023/08/06 09:22:48;;;;;;;2.85;2.60;;;22.90;99.90;;;;;;5055228;28;20049;-74
2023/08/06 09:25:24;;;;;;;2.47;2.28;;;22.70;99.90;;;;;;5037860;28;20056;-73
2023/08/06 09:27:54;;;;;;;2.50;2.28;;;22.20;99.90;;;;;;5037948;28;20045;-73
2023/08/06 09:30:33;;;;;;;2.45;2.25;;;22.40;99.90;;;;;;5055087;28;20045;-73
2023/08/06 09:32:59;;;;;;;3.58;2.53;;;22.40;99.90;;;;;;5055080;28;20056;-73
2023/08/06 09:35:28;;;;;;;2.90;2.08;;;22.40;99.90;;;;;;5037498;28;20044;-74
2023/08/06 09:37:54;;;;;;;2.78;2.17;;;22.30;99.90;;;;;;5054947;28;20041;-74
2023/08/06 09:40:28;;;;;;;1.83;1.73;;;22.40;99.90;;;;;;5055287;28;20124;-73
2023/08/06 09:42:54;;;;;;;3.55;2.20;;;22.90;99.90;;;;;;5038015;28;20110;-73
2023/08/06 09:45:21;;;;;;;2.33;1.95;;;23.80;99.90;;;;;;5055287;28;20153;-73
2023/08/06 09:47:50;;;;;;;3.20;1.75;;;24.10;99.90;;;;;;5054719;28;20145;-74
2023/08/06 09:50:20;;;;;;;2.60;2.15;;;24.10;99.90;;;;;;5054764;28;20059;-77
2023/08/06 09:52:48;;;;;;;2.80;1.77;;;24.30;99.90;;;;;;5054690;28;20049;-72
2023/08/06 09:55:14;;;;;;;2.80;1.92;;;24.40;99.90;;;;;;5055154;28;20044;-74
2023/08/06 09:57:41;;;;;;;2.00;1.90;;;24.00;99.90;;;;;;5054663;28;20090;-73
2023/08/06 10:00:11;;;;;;;3.13;2.10;;;23.90;99.90;;;;;;5037445;28;20135;-74
2023/08/06 10:02:41;;;;;;;3.45;2.40;;;23.80;99.90;;;;;;5037324;28;20084;-73
2023/08/06 10:05:08;;;;;;;1.85;1.65;;;23.50;99.90;;;;;;5020474;28;20489;-73
2023/08/06 10:07:34;;;;;;;2.22;2.00;;;23.50;99.90;;;;;;5054295;28;20133;-73
2023/08/06 10:10:01;;;;;;;2.85;2.28;;;23.50;99.90;;;;;;5054470;28;20055;-74
2023/08/06 10:12:31;;;;;;;2.85;1.70;;;23.30;99.90;;;;;;5054516;28;20071;-74
2023/08/06 10:15:00;;;;;;;2.08;1.88;;;23.40;99.90;;;;;;5036853;28;20040;-74
2023/08/06 10:17:27;;;;;;;2.03;1.90;;;23.70;98.50;;;;;;5054975;28;20041;-73
2023/08/06 10:19:55;;;;;;;3.05;1.90;;;23.50;97.10;;;;;;5036907;28;20135;-75
2023/08/06 10:22:21;;;;;;;3.22;1.80;;;23.60;99.90;;;;;;5054027;28;20049;-68
2023/08/06 10:25:06;;;;;;;1.65;1.55;;;23.90;99.90;;;;;;5054133;28;20139;-74
2023/08/06 10:27:35;;;;;;;2.10;1.77;;;23.90;97.40;;;;;;5054415;28;20099;-76
2023/08/06 10:30:27;;;;;;;5.18;1.75;;;24.20;99.90;;;;;;5036517;28;20060;-73
2023/08/06 10:33:03;;;;;;;5.07;1.75;;;24.70;95.50;;;;;;5053998;28;20088;-73
2023/08/06 10:35:50;;;;;;;1.88;1.50;;;25.20;98.60;;;;;;5054199;28;20041;-73
2023/08/06 10:38:26;;;;;;;2.20;1.60;;;25.80;98.10;;;;;;5054283;28;20389;-73
2023/08/06 10:40:54;;;;;;;3.30;1.60;;;26.60;97.50;;;;;;5053721;28;20461;-73
2023/08/06 10:43:27;;;;;;;3.72;2.83;;;25.40;96.80;;;;;;5054158;28;20041;-73
2023/08/06 10:45:53;;;;;;;3.15;1.70;;;24.90;96.40;;;;;;5053636;28;20052;-74
2023/08/06 10:48:34;;;;;;;1.70;1.60;;;24.90;98.60;;;;;;5053574;28;20041;-74
2023/08/06 10:51:01;;;;;;;1.83;1.60;;;25.10;95.30;;;;;;5053463;28;20052;-74
2023/08/06 10:53:27;;;;;;;4.55;1.65;;;24.60;97.50;;;;;;5053494;28;20051;-73
2023/08/06 10:55:53;;;;;;;4.15;1.58;;;24.70;98.40;;;;;;5052974;28;20123;-73
2023/08/06 10:58:18;;;;;;;2.92;1.60;;;24.60;97.50;;;;;;5053503;28;20044;-74
2023/08/06 11:00:45;;;;;;;2.60;1.90;;;24.40;98.10;;;;;;5019903;28;20049;-74
2023/08/06 11:03:11;;;;;;;1.90;1.80;;;23.80;97.10;;;;;;5053886;28;20063;-74
2023/08/06 11:05:36;;;;;;;2.53;1.63;;;23.40;97.50;;;;;;5053263;28;20503;-73
2023/08/06 11:08:02;;;;;;;4.45;1.90;;;23.00;98.30;;;;;;5053414;28;20047;-74
2023/08/06 11:10:28;;;;;;;2.20;1.73;;;22.60;98.40;;;;;;5053017;28;20477;-74
2023/08/06 11:12:54;;;;;;;1.80;1.70;;;22.40;99.10;;;;;;5035608;28;20048;-73
2023/08/06 11:15:21;;;;;;;1.92;1.83;;;22.20;99.30;;;;;;5053092;28;20091;-73
2023/08/06 11:17:47;;;;;;;2.35;1.63;;;22.00;99.40;;;;;;5036148;28;20048;-73
2023/08/06 11:20:13;;;;;;;3.15;2.17;;;21.70;99.10;;;;;;5053454;28;20068;-73
2023/08/06 11:22:39;;;;;;;2.13;1.95;;;21.50;99.20;;;;;;5052973;28;20060;-73
2023/08/06 11:25:08;;;;;;;1.70;1.60;;;21.20;99.90;;;;;;5035567;28;20049;-76
2023/08/06 11:27:34;;;;;;;2.67;1.90;;;21.00;99.90;;;;;;5034945;28;20438;-73
2023/08/06 11:30:00;;;;;;;2.17;2.03;;;21.00;99.60;;;;;;5052892;28;20045;-73
2023/08/06 11:32:27;;;;;;;3.90;1.98;;;20.90;99.90;;;;;;5053166;28;20107;-73
2023/08/06 11:34:55;;;;;;;3.40;1.75;;;20.90;99.90;;;;;;5052754;28;20053;-75
2023/08/06 11:37:26;;;;;;;2.60;1.98;;;21.10;99.90;;;;;;5035176;28;20164;-72
2023/08/06 11:39:52;;;;;;;3.42;1.85;;;21.20;99.70;;;;;;5052753;28;20055;-73
2023/08/06 11:42:18;;;;;;;2.03;1.80;;;21.30;99.90;;;;;;5052662;28;20054;-73
2023/08/06 11:44:47;;;;;;;2.15;1.95;;;21.40;99.30;;;;;;5035654;28;20080;-74
2023/08/06 11:47:15;;;;;;;2.53;1.75;;;21.80;99.90;;;;;;5035494;28;20049;-73
2023/08/06 11:49:47;;;;;;;1.67;1.58;;;21.90;99.90;;;;;;5052594;28;20114;-76
2023/08/06 11:52:26;;;;;;;2.67;1.75;;;22.00;99.90;;;;;;5052508;28;20048;-74
2023/08/06 11:55:03;;;;;;;1.80;1.67;;;22.20;99.30;;;;;;5052862;28;20087;-73
2023/08/06 11:57:35;;;;;;;2.17;1.80;;;22.20;98.00;;;;;;5052798;28;20056;-73
2023/08/06 12:00:11;;;;;;;1.83;1.73;;;22.00;98.70;;;;;;5052646;28;20049;-74
2023/08/06 12:02:41;;;;;;;3.35;2.00;;;22.10;99.50;;;;;;5035007;28;20041;-73
2023/08/06 12:05:13;;;;;;;2.25;1.90;;;22.00;99.00;;;;;;5052746;28;20107;-74
2023/08/06 12:07:44;;;;;;;2.10;1.55;;;22.10;98.90;;;;;;5051606;28;20087;-73
2023/08/06 12:10:10;;;;;;;1.80;1.70;;;22.10;95.40;;;;;;5052108;28;20572;-73
2023/08/06 12:12:37;;;;;;;2.08;1.70;;;22.20;98.40;;;;;;5052202;28;20595;-73
2023/08/06 12:15:03;;;;;;;3.00;1.77;;;22.30;98.10;;;;;;5018403;28;20119;-73
2023/08/06 12:17:29;;;;;;;2.20;2.00;;;22.20;97.60;;;;;;5052501;28;20057;-73
2023/08/06 12:19:55;;;;;;;2.00;1.73;;;21.90;98.00;;;;;;5052334;28;20044;-74
2023/08/06 12:22:21;;;;;;;1.80;1.70;;;21.50;98.50;;;;;;5052251;28;20077;-73
2023/08/06 12:24:47;;;;;;;1.65;1.55;;;21.50;99.20;;;;;;5034905;28;20048;-72
2023/08/06 12:27:14;;;;;;;1.80;1.70;;;21.80;99.40;;;;;;5052508;28;20063;-74
2023/08/06 12:29:44;;;;;;;2.03;1.70;;;22.10;99.20;;;;;;5052191;28;20045;-74
2023/08/06 12:32:11;;;;;;;3.22;2.22;;;22.10;98.60;;;;;;5018170;28;20381;-74
2023/08/06 12:34:39;;;;;;;2.03;1.85;;;22.30;98.80;;;;;;5051994;28;20056;-70
2023/08/06 12:37:04;;;;;;;1.98;1.77;;;22.50;98.40;;;;;;5051966;28;20049;-70